Terminal Aerodrome Forecast
Issued by NWS Upton, NY

Home | Current Version | Previous Version | Text Only | Print | Product List | Glossary On
Versions: 1 2 3 4 5 6 7 8 9 10 11 12 13 14 15 16 17 18 19 20 21 22 23 24 25 26 27
000
FTUS41 KOKX 212300
TAFLGA
TAF
KLGA 212327Z 2200/2224 36007KT P6SM SCT015 OVC025
      TEMPO 2200/2203 -SNRA SCT025 OVC035
     FM220300 36007KT P6SM OVC015
     FM221200 04008KT P6SM BKN015 OVC025
     FM221600 06008KT 6SM -RA BKN010 OVC020
     FM222000 07008KT 6SM -RA BKN008=

USA.gov is the U.S. government's official web portal to all federal, state and local government web resources and services.